CFG6TW GMAD-GCTS
Flight info
| Callsign | CFG6TW |
|---|---|
| Flight time | 1h 26m |
| Altitude | 33000 |
| Route | TEKNA UA600 AMLOK DCT RUSIK |
| Aircraft | A320/M-SDE3FGHIRWY/LB1 |
Departure
| Time | 2026-04-23 14:22 |
|---|---|
| Airport | Al Massira Airport (GMAD) |
Arrival
| Time | 2026-04-23 15:48 |
|---|---|
| Airport | Tenerife Sur Airport (GCTS) |
| Time | Latitude | Longitude | Altitude | Speed | Heading |
|---|---|---|---|---|---|
| 2026-04-23 14:05 | 30.32878 | -9.41047 | 231 ft | 0 kts | 1° |
| 2026-04-23 14:12 | 30.32863 | -9.41047 | 231 ft | 3 kts | 4° |
| 2026-04-23 14:12 | 30.32837 | -9.41052 | 233 ft | 3 kts | 18° |
| 2026-04-23 14:12 | 30.32815 | -9.41065 | 234 ft | 3 kts | 57° |
| 2026-04-23 14:13 | 30.32810 | -9.41079 | 234 ft | 0 kts | 92° |
| 2026-04-23 14:14 | 30.32810 | -9.41078 | 234 ft | 2 kts | 92° |
| 2026-04-23 14:15 | 30.32809 | -9.41052 | 234 ft | 3 kts | 92° |
| 2026-04-23 14:15 | 30.32809 | -9.41030 | 232 ft | 2 kts | 92° |
| 2026-04-23 14:15 | 30.32807 | -9.40978 | 233 ft | 13 kts | 92° |
| 2026-04-23 14:15 | 30.32804 | -9.40875 | 231 ft | 12 kts | 90° |
| 2026-04-23 14:16 | 30.32804 | -9.40784 | 231 ft | 11 kts | 90° |
| 2026-04-23 14:16 | 30.32798 | -9.40705 | 231 ft | 9 kts | 103° |
| 2026-04-23 14:16 | 30.32760 | -9.40663 | 231 ft | 7 kts | 168° |
| 2026-04-23 14:16 | 30.32703 | -9.40665 | 231 ft | 9 kts | 181° |
| 2026-04-23 14:17 | 30.32627 | -9.40667 | 231 ft | 12 kts | 181° |
| 2026-04-23 14:17 | 30.32529 | -9.40670 | 231 ft | 15 kts | 181° |
| 2026-04-23 14:17 | 30.32439 | -9.40616 | 231 ft | 17 kts | 102° |
| 2026-04-23 14:17 | 30.32434 | -9.40482 | 231 ft | 16 kts | 92° |
| 2026-04-23 14:18 | 30.32431 | -9.40360 | 231 ft | 15 kts | 91° |
| 2026-04-23 14:18 | 30.32429 | -9.40248 | 231 ft | 13 kts | 91° |
| 2026-04-23 14:18 | 30.32426 | -9.40146 | 231 ft | 12 kts | 91° |
| 2026-04-23 14:18 | 30.32424 | -9.40052 | 231 ft | 13 kts | 92° |
| 2026-04-23 14:19 | 30.32421 | -9.39932 | 231 ft | 15 kts | 91° |
| 2026-04-23 14:19 | 30.32418 | -9.39814 | 231 ft | 14 kts | 91° |
| 2026-04-23 14:19 | 30.32416 | -9.39711 | 231 ft | 12 kts | 91° |
| 2026-04-23 14:19 | 30.32413 | -9.39619 | 231 ft | 11 kts | 90° |
| 2026-04-23 14:20 | 30.32411 | -9.39540 | 231 ft | 9 kts | 100° |
| 2026-04-23 14:20 | 30.32372 | -9.39497 | 231 ft | 8 kts | 167° |
| 2026-04-23 14:20 | 30.32306 | -9.39497 | 231 ft | 11 kts | 181° |
| 2026-04-23 14:20 | 30.32230 | -9.39527 | 231 ft | 12 kts | 237° |
| 2026-04-23 14:21 | 30.32227 | -9.39630 | 231 ft | 15 kts | 271° |
| 2026-04-23 14:21 | 30.32232 | -9.39876 | 231 ft | 60 kts | 271° |
| 2026-04-23 14:21 | 30.32249 | -9.40599 | 231 ft | 120 kts | 271° |
| 2026-04-23 14:21 | 30.32278 | -9.41773 | 355 ft | 155 kts | 271° |
| 2026-04-23 14:22 | 30.32321 | -9.42994 | 982 ft | 154 kts | 274° |
| 2026-04-23 14:22 | 30.32395 | -9.44227 | 1681 ft | 153 kts | 272° |
| 2026-04-23 14:22 | 30.32472 | -9.45538 | 2045 ft | 174 kts | 272° |
| 2026-04-23 14:22 | 30.32545 | -9.47016 | 2380 ft | 194 kts | 275° |
| 2026-04-23 14:23 | 30.32615 | -9.48674 | 2666 ft | 220 kts | 272° |
| 2026-04-23 14:23 | 30.32378 | -9.50512 | 3066 ft | 245 kts | 252° |
| 2026-04-23 14:23 | 30.31497 | -9.52261 | 3685 ft | 260 kts | 229° |
| 2026-04-23 14:23 | 30.30057 | -9.53535 | 4570 ft | 263 kts | 206° |
| 2026-04-23 14:24 | 30.28328 | -9.54229 | 5511 ft | 265 kts | 198° |
| 2026-04-23 14:24 | 30.26564 | -9.54887 | 6406 ft | 267 kts | 199° |
| 2026-04-23 14:24 | 30.24781 | -9.55575 | 7138 ft | 273 kts | 199° |
| 2026-04-23 14:24 | 30.22990 | -9.56279 | 7992 ft | 275 kts | 200° |
| 2026-04-23 14:25 | 30.21185 | -9.57003 | 8910 ft | 274 kts | 200° |
| 2026-04-23 14:25 | 30.19385 | -9.57730 | 9774 ft | 275 kts | 201° |
| 2026-04-23 14:25 | 30.17559 | -9.58500 | 10338 ft | 287 kts | 204° |
| 2026-04-23 14:25 | 30.15656 | -9.59460 | 10582 ft | 309 kts | 209° |
| 2026-04-23 14:26 | 30.13873 | -9.60939 | 11027 ft | 320 kts | 223° |
| 2026-04-23 14:26 | 30.12338 | -9.62813 | 11770 ft | 322 kts | 231° |
| 2026-04-23 14:26 | 30.10916 | -9.64828 | 12527 ft | 325 kts | 230° |
| 2026-04-23 14:26 | 30.09426 | -9.66797 | 13296 ft | 327 kts | 229° |
| 2026-04-23 14:27 | 30.07895 | -9.68749 | 14044 ft | 328 kts | 228° |
| 2026-04-23 14:27 | 30.06353 | -9.70709 | 14692 ft | 330 kts | 228° |
| 2026-04-23 14:27 | 30.04832 | -9.72659 | 15319 ft | 333 kts | 228° |
| 2026-04-23 14:27 | 30.03263 | -9.74691 | 15945 ft | 335 kts | 229° |
| 2026-04-23 14:28 | 30.01694 | -9.76705 | 16166 ft | 346 kts | 228° |
| 2026-04-23 14:28 | 30.00090 | -9.78750 | 17030 ft | 342 kts | 228° |
| 2026-04-23 14:28 | 29.98496 | -9.80783 | 17712 ft | 343 kts | 228° |
| 2026-04-23 14:28 | 29.96896 | -9.82824 | 18339 ft | 345 kts | 228° |
| 2026-04-23 14:29 | 29.95282 | -9.84885 | 18908 ft | 347 kts | 228° |
| 2026-04-23 14:29 | 29.93662 | -9.86954 | 19450 ft | 349 kts | 228° |
| 2026-04-23 14:29 | 29.92025 | -9.89044 | 19993 ft | 351 kts | 228° |
| 2026-04-23 14:29 | 29.90384 | -9.91139 | 20526 ft | 354 kts | 228° |
| 2026-04-23 14:30 | 29.88732 | -9.93250 | 21057 ft | 356 kts | 229° |
| 2026-04-23 14:30 | 29.87084 | -9.95351 | 21585 ft | 359 kts | 228° |
| 2026-04-23 14:30 | 29.85380 | -9.97520 | 22116 ft | 361 kts | 229° |
| 2026-04-23 14:30 | 29.83711 | -9.99643 | 22641 ft | 364 kts | 229° |
| 2026-04-23 14:31 | 29.82119 | -10.01919 | 23139 ft | 366 kts | 237° |
| 2026-04-23 14:31 | 29.80942 | -10.04535 | 23619 ft | 369 kts | 248° |
| 2026-04-23 14:31 | 29.80073 | -10.07317 | 24031 ft | 372 kts | 249° |
| 2026-04-23 14:31 | 29.79197 | -10.10136 | 24460 ft | 373 kts | 249° |
| 2026-04-23 14:32 | 29.78317 | -10.12955 | 24870 ft | 375 kts | 249° |
| 2026-04-23 14:32 | 29.77430 | -10.15789 | 25279 ft | 376 kts | 249° |
| 2026-04-23 14:32 | 29.76540 | -10.18627 | 25676 ft | 378 kts | 249° |
| 2026-04-23 14:32 | 29.75646 | -10.21471 | 26085 ft | 379 kts | 249° |
| 2026-04-23 14:33 | 29.74747 | -10.24330 | 26496 ft | 379 kts | 249° |
| 2026-04-23 14:33 | 29.73848 | -10.27184 | 26875 ft | 381 kts | 249° |
| 2026-04-23 14:33 | 29.72943 | -10.30050 | 27250 ft | 382 kts | 249° |
| 2026-04-23 14:33 | 29.72029 | -10.32934 | 27606 ft | 384 kts | 249° |
| 2026-04-23 14:34 | 29.71127 | -10.35786 | 27958 ft | 385 kts | 250° |
| 2026-04-23 14:34 | 29.70213 | -10.38687 | 28288 ft | 387 kts | 250° |
| 2026-04-23 14:34 | 29.69289 | -10.41615 | 28625 ft | 389 kts | 250° |
| 2026-04-23 14:34 | 29.68365 | -10.44533 | 28950 ft | 391 kts | 250° |
| 2026-04-23 14:35 | 29.67429 | -10.47488 | 29277 ft | 392 kts | 250° |
| 2026-04-23 14:35 | 29.66494 | -10.50431 | 29591 ft | 394 kts | 250° |
| 2026-04-23 14:35 | 29.65550 | -10.53404 | 29896 ft | 395 kts | 250° |
| 2026-04-23 14:35 | 29.64607 | -10.56371 | 30179 ft | 397 kts | 250° |
| 2026-04-23 14:36 | 29.63660 | -10.59359 | 30450 ft | 398 kts | 250° |
| 2026-04-23 14:36 | 29.62710 | -10.62353 | 30698 ft | 399 kts | 250° |
| 2026-04-23 14:36 | 29.61754 | -10.65363 | 30937 ft | 400 kts | 250° |
| 2026-04-23 14:36 | 29.60808 | -10.68331 | 31178 ft | 401 kts | 250° |
| 2026-04-23 14:37 | 29.59848 | -10.71332 | 31510 ft | 399 kts | 250° |
| 2026-04-23 14:37 | 29.58879 | -10.74360 | 31864 ft | 398 kts | 250° |
| 2026-04-23 14:37 | 29.57940 | -10.77298 | 32175 ft | 396 kts | 250° |
| 2026-04-23 14:37 | 29.56993 | -10.80264 | 32499 ft | 395 kts | 250° |
| 2026-04-23 14:38 | 29.56043 | -10.83227 | 32827 ft | 394 kts | 250° |
| 2026-04-23 14:38 | 29.55094 | -10.86177 | 33147 ft | 393 kts | 250° |
| 2026-04-23 14:38 | 29.54151 | -10.89110 | 33481 ft | 392 kts | 250° |
| 2026-04-23 14:38 | 29.53209 | -10.92046 | 33798 ft | 391 kts | 250° |
| 2026-04-23 14:39 | 29.52269 | -10.94972 | 34120 ft | 389 kts | 250° |
| 2026-04-23 14:39 | 29.51335 | -10.97875 | 34441 ft | 387 kts | 250° |
| 2026-04-23 14:39 | 29.50405 | -11.00756 | 34784 ft | 383 kts | 250° |
| 2026-04-23 14:39 | 29.49477 | -11.03623 | 35010 ft | 381 kts | 250° |
| 2026-04-23 14:40 | 29.47663 | -11.09249 | 35058 ft | 371 kts | 250° |
| 2026-04-23 14:40 | 29.45883 | -11.14791 | 35062 ft | 369 kts | 250° |
| 2026-04-23 14:41 | 29.44093 | -11.20317 | 35060 ft | 369 kts | 250° |
| 2026-04-23 14:41 | 29.42310 | -11.25800 | 35060 ft | 369 kts | 250° |
| 2026-04-23 14:42 | 29.40518 | -11.31321 | 35069 ft | 369 kts | 250° |
| 2026-04-23 14:42 | 29.38729 | -11.36836 | 35072 ft | 369 kts | 250° |
| 2026-04-23 14:43 | 29.36937 | -11.42352 | 35069 ft | 369 kts | 250° |
| 2026-04-23 14:43 | 29.35143 | -11.47868 | 35067 ft | 369 kts | 250° |
| 2026-04-23 14:44 | 29.33345 | -11.53371 | 35065 ft | 368 kts | 250° |
| 2026-04-23 14:44 | 29.31555 | -11.58830 | 35044 ft | 368 kts | 250° |
| 2026-04-23 14:45 | 29.29746 | -11.64324 | 35051 ft | 368 kts | 250° |
| 2026-04-23 14:45 | 29.27947 | -11.69808 | 35055 ft | 368 kts | 250° |
| 2026-04-23 14:46 | 29.26150 | -11.75289 | 35068 ft | 368 kts | 250° |
| 2026-04-23 14:46 | 29.24348 | -11.80767 | 35071 ft | 368 kts | 250° |
| 2026-04-23 14:47 | 29.22538 | -11.86247 | 35069 ft | 368 kts | 250° |
| 2026-04-23 14:47 | 29.20737 | -11.91687 | 35070 ft | 368 kts | 250° |
| 2026-04-23 14:48 | 29.18927 | -11.97154 | 35074 ft | 368 kts | 250° |
| 2026-04-23 14:48 | 29.17113 | -12.02623 | 35075 ft | 368 kts | 250° |
| 2026-04-23 14:49 | 29.15302 | -12.08091 | 35074 ft | 368 kts | 251° |
| 2026-04-23 14:49 | 29.13483 | -12.13562 | 35074 ft | 368 kts | 250° |
| 2026-04-23 14:50 | 29.11657 | -12.19030 | 35074 ft | 368 kts | 250° |
| 2026-04-23 14:50 | 29.09836 | -12.24495 | 35073 ft | 368 kts | 250° |
| 2026-04-23 14:51 | 29.08015 | -12.29971 | 35074 ft | 368 kts | 250° |
| 2026-04-23 14:51 | 29.06190 | -12.35428 | 35085 ft | 368 kts | 250° |
| 2026-04-23 14:52 | 29.04369 | -12.40860 | 35097 ft | 368 kts | 251° |
| 2026-04-23 14:52 | 29.02521 | -12.46359 | 35090 ft | 368 kts | 251° |
| 2026-04-23 14:53 | 29.00695 | -12.51788 | 35089 ft | 369 kts | 251° |
| 2026-04-23 14:53 | 28.98854 | -12.57266 | 35089 ft | 369 kts | 251° |
| 2026-04-23 14:54 | 28.97008 | -12.62727 | 35091 ft | 369 kts | 251° |
| 2026-04-23 14:54 | 28.95160 | -12.68198 | 35093 ft | 369 kts | 251° |
| 2026-04-23 14:55 | 28.93624 | -12.72740 | 35089 ft | 369 kts | 251° |
| 2026-04-23 14:55 | 28.91771 | -12.78209 | 35062 ft | 369 kts | 251° |
| 2026-04-23 14:56 | 28.89685 | -12.83565 | 35077 ft | 371 kts | 244° |
| 2026-04-23 14:56 | 28.87188 | -12.88727 | 35083 ft | 371 kts | 244° |
| 2026-04-23 14:57 | 28.84686 | -12.93873 | 35090 ft | 371 kts | 244° |
| 2026-04-23 14:57 | 28.82196 | -12.98993 | 35094 ft | 371 kts | 244° |
| 2026-04-23 14:58 | 28.79692 | -13.04138 | 35092 ft | 371 kts | 244° |
| 2026-04-23 14:58 | 28.77184 | -13.09299 | 35091 ft | 371 kts | 244° |
| 2026-04-23 14:59 | 28.74677 | -13.14446 | 35092 ft | 371 kts | 245° |
| 2026-04-23 14:59 | 28.72166 | -13.19600 | 35088 ft | 372 kts | 245° |
| 2026-04-23 15:00 | 28.69660 | -13.24714 | 35071 ft | 373 kts | 245° |
| 2026-04-23 15:00 | 28.67130 | -13.29866 | 35084 ft | 373 kts | 245° |
| 2026-04-23 15:01 | 28.64601 | -13.35026 | 35083 ft | 373 kts | 245° |
| 2026-04-23 15:01 | 28.62075 | -13.40188 | 35085 ft | 373 kts | 245° |
| 2026-04-23 15:02 | 28.59543 | -13.45346 | 35081 ft | 373 kts | 244° |
| 2026-04-23 15:02 | 28.57008 | -13.50496 | 35071 ft | 373 kts | 245° |
| 2026-04-23 15:03 | 28.54470 | -13.55650 | 35063 ft | 373 kts | 245° |
| 2026-04-23 15:03 | 28.51953 | -13.60760 | 35061 ft | 373 kts | 245° |
| 2026-04-23 15:04 | 28.49411 | -13.65907 | 35055 ft | 373 kts | 245° |
| 2026-04-23 15:04 | 28.46867 | -13.71047 | 35055 ft | 373 kts | 245° |
| 2026-04-23 15:05 | 28.44327 | -13.76179 | 35053 ft | 373 kts | 245° |
| 2026-04-23 15:05 | 28.41788 | -13.81327 | 35053 ft | 373 kts | 245° |
| 2026-04-23 15:06 | 28.39258 | -13.86424 | 35032 ft | 373 kts | 245° |
| 2026-04-23 15:06 | 28.36703 | -13.91555 | 35034 ft | 374 kts | 245° |
| 2026-04-23 15:07 | 28.34139 | -13.96707 | 35040 ft | 375 kts | 245° |
| 2026-04-23 15:07 | 28.31569 | -14.01887 | 35043 ft | 376 kts | 245° |
| 2026-04-23 15:08 | 28.29000 | -14.07046 | 35060 ft | 376 kts | 245° |
| 2026-04-23 15:09 | 28.25140 | -14.14769 | 35059 ft | 376 kts | 244° |
| 2026-04-23 15:09 | 28.22560 | -14.19924 | 35064 ft | 377 kts | 244° |
| 2026-04-23 15:10 | 28.19971 | -14.25107 | 35041 ft | 377 kts | 245° |
| 2026-04-23 15:10 | 28.17382 | -14.30275 | 35053 ft | 376 kts | 244° |
| 2026-04-23 15:11 | 28.14793 | -14.35424 | 35062 ft | 376 kts | 244° |
| 2026-04-23 15:11 | 28.12212 | -14.40560 | 35066 ft | 376 kts | 244° |
| 2026-04-23 15:12 | 28.09624 | -14.45705 | 35069 ft | 376 kts | 244° |
| 2026-04-23 15:12 | 28.07030 | -14.50853 | 35074 ft | 376 kts | 244° |
| 2026-04-23 15:13 | 28.04437 | -14.56004 | 35074 ft | 376 kts | 244° |
| 2026-04-23 15:13 | 28.01841 | -14.61143 | 35066 ft | 377 kts | 244° |
| 2026-04-23 15:14 | 27.99637 | -14.66435 | 35065 ft | 372 kts | 257° |
| 2026-04-23 15:14 | 27.98416 | -14.72113 | 35065 ft | 372 kts | 258° |
| 2026-04-23 15:15 | 27.97188 | -14.77797 | 35063 ft | 372 kts | 258° |
| 2026-04-23 15:15 | 27.95947 | -14.83488 | 35065 ft | 372 kts | 258° |
| 2026-04-23 15:16 | 27.94711 | -14.89177 | 35069 ft | 373 kts | 258° |
| 2026-04-23 15:16 | 27.93478 | -14.94840 | 35062 ft | 373 kts | 258° |
| 2026-04-23 15:17 | 27.92237 | -15.00542 | 35062 ft | 373 kts | 258° |
| 2026-04-23 15:17 | 27.90992 | -15.06248 | 35063 ft | 374 kts | 258° |
| 2026-04-23 15:18 | 27.89742 | -15.11964 | 35068 ft | 374 kts | 258° |
| 2026-04-23 15:18 | 27.89113 | -15.14826 | 34940 ft | 374 kts | 258° |
| 2026-04-23 15:18 | 27.88488 | -15.17653 | 34705 ft | 371 kts | 258° |
| 2026-04-23 15:18 | 27.87874 | -15.20445 | 34476 ft | 371 kts | 258° |
| 2026-04-23 15:19 | 27.87252 | -15.23275 | 34244 ft | 370 kts | 259° |
| 2026-04-23 15:19 | 27.86630 | -15.26104 | 34004 ft | 370 kts | 259° |
| 2026-04-23 15:19 | 27.86010 | -15.28919 | 33733 ft | 369 kts | 259° |
| 2026-04-23 15:19 | 27.85389 | -15.31732 | 33471 ft | 368 kts | 259° |
| 2026-04-23 15:20 | 27.84769 | -15.34544 | 33208 ft | 365 kts | 259° |
| 2026-04-23 15:20 | 27.84160 | -15.37299 | 32801 ft | 360 kts | 259° |
| 2026-04-23 15:20 | 27.83554 | -15.40031 | 32356 ft | 355 kts | 259° |
| 2026-04-23 15:20 | 27.83073 | -15.42743 | 31874 ft | 351 kts | 267° |
| 2026-04-23 15:21 | 27.83050 | -15.45471 | 31398 ft | 346 kts | 276° |
| 2026-04-23 15:21 | 27.83293 | -15.48136 | 30943 ft | 344 kts | 277° |
| 2026-04-23 15:21 | 27.83532 | -15.50821 | 30485 ft | 342 kts | 277° |
| 2026-04-23 15:21 | 27.83763 | -15.53491 | 30014 ft | 340 kts | 277° |
| 2026-04-23 15:22 | 27.83989 | -15.56132 | 29541 ft | 337 kts | 276° |
| 2026-04-23 15:22 | 27.84215 | -15.58771 | 29110 ft | 334 kts | 276° |
| 2026-04-23 15:22 | 27.84439 | -15.61366 | 28681 ft | 330 kts | 276° |
| 2026-04-23 15:22 | 27.84660 | -15.63938 | 28271 ft | 326 kts | 276° |
| 2026-04-23 15:23 | 27.84878 | -15.66472 | 27854 ft | 323 kts | 277° |
| 2026-04-23 15:23 | 27.85096 | -15.68991 | 27451 ft | 319 kts | 276° |
| 2026-04-23 15:23 | 27.85308 | -15.71463 | 27030 ft | 316 kts | 276° |
| 2026-04-23 15:23 | 27.85518 | -15.73921 | 26620 ft | 313 kts | 276° |
| 2026-04-23 15:24 | 27.85728 | -15.76368 | 26213 ft | 310 kts | 276° |
| 2026-04-23 15:24 | 27.85932 | -15.78750 | 25802 ft | 307 kts | 276° |
| 2026-04-23 15:24 | 27.86138 | -15.81179 | 25394 ft | 305 kts | 276° |
| 2026-04-23 15:24 | 27.86337 | -15.83528 | 24949 ft | 305 kts | 276° |
| 2026-04-23 15:25 | 27.86538 | -15.85907 | 24531 ft | 304 kts | 276° |
| 2026-04-23 15:25 | 27.86741 | -15.88285 | 24098 ft | 303 kts | 276° |
| 2026-04-23 15:25 | 27.86942 | -15.90652 | 23659 ft | 303 kts | 276° |
| 2026-04-23 15:25 | 27.87143 | -15.93022 | 23176 ft | 302 kts | 276° |
| 2026-04-23 15:26 | 27.87342 | -15.95381 | 22741 ft | 300 kts | 276° |
| 2026-04-23 15:26 | 27.87541 | -15.97720 | 22314 ft | 298 kts | 276° |
| 2026-04-23 15:26 | 27.87738 | -16.00046 | 21904 ft | 297 kts | 276° |
| 2026-04-23 15:26 | 27.87932 | -16.02371 | 21482 ft | 296 kts | 276° |
| 2026-04-23 15:27 | 27.88123 | -16.04677 | 21069 ft | 295 kts | 276° |
| 2026-04-23 15:27 | 27.88316 | -16.06988 | 20656 ft | 294 kts | 276° |
| 2026-04-23 15:27 | 27.88506 | -16.09291 | 20248 ft | 293 kts | 276° |
| 2026-04-23 15:27 | 27.88693 | -16.11555 | 19813 ft | 294 kts | 276° |
| 2026-04-23 15:28 | 27.88887 | -16.13911 | 19274 ft | 299 kts | 276° |
| 2026-04-23 15:28 | 27.89077 | -16.16221 | 18880 ft | 299 kts | 276° |
| 2026-04-23 15:28 | 27.89266 | -16.18554 | 18514 ft | 298 kts | 276° |
| 2026-04-23 15:28 | 27.89455 | -16.20885 | 18115 ft | 297 kts | 276° |
| 2026-04-23 15:29 | 27.89646 | -16.23198 | 17741 ft | 294 kts | 276° |
| 2026-04-23 15:29 | 27.89785 | -16.25500 | 17381 ft | 292 kts | 269° |
| 2026-04-23 15:29 | 27.89494 | -16.27768 | 16989 ft | 293 kts | 256° |
| 2026-04-23 15:29 | 27.88763 | -16.29914 | 16599 ft | 294 kts | 249° |
| 2026-04-23 15:30 | 27.87960 | -16.32052 | 16207 ft | 294 kts | 249° |
| 2026-04-23 15:30 | 27.87166 | -16.34176 | 15837 ft | 293 kts | 249° |
| 2026-04-23 15:30 | 27.86371 | -16.36302 | 15453 ft | 293 kts | 249° |
| 2026-04-23 15:30 | 27.85577 | -16.38423 | 15082 ft | 293 kts | 249° |
| 2026-04-23 15:31 | 27.84781 | -16.40548 | 14698 ft | 293 kts | 249° |
| 2026-04-23 15:31 | 27.83987 | -16.42666 | 14334 ft | 293 kts | 249° |
| 2026-04-23 15:31 | 27.83193 | -16.44781 | 14008 ft | 291 kts | 249° |
| 2026-04-23 15:31 | 27.82402 | -16.46882 | 13624 ft | 291 kts | 249° |
| 2026-04-23 15:32 | 27.81615 | -16.48975 | 13204 ft | 290 kts | 249° |
| 2026-04-23 15:32 | 27.80831 | -16.51063 | 12837 ft | 289 kts | 249° |
| 2026-04-23 15:32 | 27.80057 | -16.53129 | 12441 ft | 288 kts | 249° |
| 2026-04-23 15:32 | 27.79275 | -16.55210 | 12059 ft | 288 kts | 248° |
| 2026-04-23 15:33 | 27.78495 | -16.57288 | 11665 ft | 287 kts | 248° |
| 2026-04-23 15:33 | 27.77718 | -16.59360 | 11275 ft | 287 kts | 248° |
| 2026-04-23 15:33 | 27.76940 | -16.61430 | 10915 ft | 285 kts | 248° |
| 2026-04-23 15:33 | 27.76165 | -16.63487 | 10539 ft | 284 kts | 248° |
| 2026-04-23 15:34 | 27.75399 | -16.65517 | 10342 ft | 277 kts | 248° |
| 2026-04-23 15:34 | 27.74682 | -16.67488 | 10219 ft | 266 kts | 254° |
| 2026-04-23 15:34 | 27.74523 | -16.69509 | 10096 ft | 254 kts | 278° |
| 2026-04-23 15:34 | 27.75111 | -16.71349 | 9862 ft | 250 kts | 302° |
| 2026-04-23 15:35 | 27.76297 | -16.72803 | 9471 ft | 252 kts | 316° |
| 2026-04-23 15:35 | 27.77581 | -16.74131 | 9132 ft | 251 kts | 315° |
| 2026-04-23 15:35 | 27.78857 | -16.75462 | 8811 ft | 248 kts | 315° |
| 2026-04-23 15:35 | 27.80107 | -16.76774 | 8459 ft | 247 kts | 315° |
| 2026-04-23 15:36 | 27.81364 | -16.78093 | 8117 ft | 246 kts | 316° |
| 2026-04-23 15:36 | 27.82612 | -16.79406 | 7777 ft | 244 kts | 316° |
| 2026-04-23 15:36 | 27.83845 | -16.80707 | 7456 ft | 241 kts | 315° |
| 2026-04-23 15:36 | 27.84826 | -16.82209 | 7158 ft | 237 kts | 293° |
| 2026-04-23 15:37 | 27.85158 | -16.84013 | 6905 ft | 233 kts | 269° |
| 2026-04-23 15:37 | 27.84809 | -16.85819 | 6836 ft | 240 kts | 249° |
| 2026-04-23 15:37 | 27.84359 | -16.86960 | 6777 ft | 241 kts | 248° |
| 2026-04-23 15:37 | 27.83491 | -16.89253 | 6687 ft | 234 kts | 256° |
| 2026-04-23 15:38 | 27.83304 | -16.91035 | 6497 ft | 225 kts | 276° |
| 2026-04-23 15:38 | 27.83710 | -16.92711 | 6212 ft | 221 kts | 298° |
| 2026-04-23 15:38 | 27.84647 | -16.94056 | 5946 ft | 217 kts | 321° |
| 2026-04-23 15:38 | 27.85953 | -16.94870 | 5723 ft | 212 kts | 342° |
| 2026-04-23 15:39 | 27.87383 | -16.95115 | 5561 ft | 206 kts | 2° |
| 2026-04-23 15:39 | 27.88765 | -16.94792 | 5459 ft | 203 kts | 21° |
| 2026-04-23 15:39 | 27.89965 | -16.93993 | 5358 ft | 205 kts | 39° |
| 2026-04-23 15:39 | 27.90898 | -16.92811 | 5308 ft | 195 kts | 56° |
| 2026-04-23 15:40 | 27.91539 | -16.91546 | 5326 ft | 177 kts | 58° |
| 2026-04-23 15:40 | 27.92093 | -16.90340 | 5176 ft | 169 kts | 62° |
| 2026-04-23 15:40 | 27.92561 | -16.89138 | 5032 ft | 165 kts | 64° |
| 2026-04-23 15:40 | 27.92930 | -16.87911 | 4857 ft | 164 kts | 71° |
| 2026-04-23 15:41 | 27.93359 | -16.86754 | 4731 ft | 157 kts | 61° |
| 2026-04-23 15:41 | 27.93893 | -16.85684 | 4617 ft | 155 kts | 53° |
| 2026-04-23 15:41 | 27.94536 | -16.84708 | 4574 ft | 155 kts | 53° |
| 2026-04-23 15:41 | 27.95087 | -16.83656 | 4504 ft | 157 kts | 64° |
| 2026-04-23 15:42 | 27.95525 | -16.82548 | 4458 ft | 156 kts | 63° |
| 2026-04-23 15:42 | 27.95964 | -16.81420 | 4316 ft | 157 kts | 64° |
| 2026-04-23 15:42 | 27.96385 | -16.80269 | 4145 ft | 156 kts | 65° |
| 2026-04-23 15:42 | 27.96791 | -16.79147 | 3940 ft | 156 kts | 65° |
| 2026-04-23 15:43 | 27.97197 | -16.78001 | 3742 ft | 156 kts | 65° |
| 2026-04-23 15:43 | 27.97594 | -16.76868 | 3545 ft | 155 kts | 66° |
| 2026-04-23 15:43 | 27.97992 | -16.75732 | 3335 ft | 155 kts | 65° |
| 2026-04-23 15:43 | 27.98391 | -16.74600 | 3132 ft | 154 kts | 65° |
| 2026-04-23 15:44 | 27.98789 | -16.73470 | 2925 ft | 155 kts | 66° |
| 2026-04-23 15:44 | 27.99184 | -16.72332 | 2706 ft | 156 kts | 66° |
| 2026-04-23 15:44 | 27.99582 | -16.71190 | 2496 ft | 154 kts | 65° |
| 2026-04-23 15:44 | 27.99976 | -16.70071 | 2318 ft | 153 kts | 66° |
| 2026-04-23 15:45 | 28.00354 | -16.68966 | 2137 ft | 152 kts | 69° |
| 2026-04-23 15:45 | 28.00736 | -16.67854 | 1912 ft | 151 kts | 69° |
| 2026-04-23 15:45 | 28.01129 | -16.66744 | 1699 ft | 149 kts | 68° |
| 2026-04-23 15:45 | 28.01504 | -16.65672 | 1517 ft | 149 kts | 69° |
| 2026-04-23 15:46 | 28.01882 | -16.64581 | 1318 ft | 148 kts | 70° |
| 2026-04-23 15:46 | 28.02258 | -16.63501 | 1106 ft | 147 kts | 69° |
| 2026-04-23 15:46 | 28.02638 | -16.62429 | 927 ft | 146 kts | 71° |
| 2026-04-23 15:46 | 28.03012 | -16.61354 | 697 ft | 147 kts | 70° |
| 2026-04-23 15:47 | 28.03388 | -16.60284 | 510 ft | 146 kts | 71° |
| 2026-04-23 15:47 | 28.03759 | -16.59212 | 322 ft | 146 kts | 70° |
| 2026-04-23 15:47 | 28.04125 | -16.58163 | 206 ft | 137 kts | 67° |
| 2026-04-23 15:47 | 28.04337 | -16.57566 | 195 ft | 107 kts | 69° |
| 2026-04-23 15:48 | 28.04549 | -16.56961 | 199 ft | 56 kts | 69° |
| 2026-04-23 15:48 | 28.04673 | -16.56625 | 207 ft | 29 kts | 60° |
| 2026-04-23 15:48 | 28.04745 | -16.56520 | 210 ft | 22 kts | 46° |
| 2026-04-23 15:48 | 28.04847 | -16.56411 | 215 ft | 19 kts | 42° |
| 2026-04-23 15:49 | 28.04932 | -16.56394 | 219 ft | 14 kts | 277° |
| 2026-04-23 15:49 | 28.04905 | -16.56489 | 223 ft | 12 kts | 248° |
| 2026-04-23 15:49 | 28.04876 | -16.56573 | 221 ft | 11 kts | 249° |
| 2026-04-23 15:49 | 28.04851 | -16.56647 | 223 ft | 9 kts | 248° |
| 2026-04-23 15:50 | 28.04828 | -16.56711 | 220 ft | 8 kts | 248° |
| 2026-04-23 15:50 | 28.04809 | -16.56768 | 227 ft | 7 kts | 248° |
| 2026-04-23 15:50 | 28.04791 | -16.56819 | 222 ft | 9 kts | 248° |
| 2026-04-23 15:50 | 28.04759 | -16.56909 | 223 ft | 14 kts | 249° |
| 2026-04-23 15:51 | 28.04721 | -16.57020 | 223 ft | 16 kts | 248° |
| 2026-04-23 15:51 | 28.04696 | -16.57131 | 222 ft | 13 kts | 287° |
| 2026-04-23 15:51 | 28.04763 | -16.57179 | 224 ft | 10 kts | 331° |
| 2026-04-23 15:51 | 28.04779 | -16.57235 | 225 ft | 7 kts | 252° |
| 2026-04-23 15:52 | 28.04762 | -16.57287 | 225 ft | 8 kts | 248° |
| 2026-04-23 15:52 | 28.04732 | -16.57368 | 225 ft | 13 kts | 248° |
| 2026-04-23 15:52 | 28.04701 | -16.57458 | 225 ft | 11 kts | 247° |
| 2026-04-23 15:52 | 28.04673 | -16.57529 | 226 ft | 6 kts | 248° |
| 2026-04-23 15:53 | 28.04657 | -16.57574 | 224 ft | 7 kts | 248° |
| 2026-04-23 15:53 | 28.04659 | -16.57596 | 225 ft | 3 kts | 314° |
| 2026-04-23 15:53 | 28.04675 | -16.57605 | 226 ft | 1 kts | 332° |
| 2026-04-23 15:53 | 28.04708 | -16.57621 | 226 ft | 7 kts | 339° |
| 2026-04-23 15:54 | 28.04726 | -16.57628 | 228 ft | 1 kts | 339° |
| 2026-04-23 15:54 | 28.04729 | -16.57630 | 226 ft | 0 kts | 339° |